createdAt,value
2022-10-30T00:00:46.847Z,97.87
2022-10-30T00:01:46.963Z,97.26
2022-10-30T00:02:46.897Z,97.36
2022-10-30T00:03:46.801Z,97.81
2022-10-30T00:04:46.781Z,97.47
2022-10-30T00:05:46.788Z,96.50
2022-10-30T00:06:46.797Z,96.70
2022-10-30T00:07:46.963Z,97.11
2022-10-30T00:08:46.799Z,97.00
2022-10-30T00:09:46.726Z,97.20
2022-10-30T00:10:46.981Z,96.50
2022-10-30T00:11:46.868Z,96.50
2022-10-30T00:12:46.688Z,96.39
2022-10-30T00:13:46.905Z,96.80
2022-10-30T00:14:46.668Z,96.80
2022-10-30T00:15:46.674Z,96.80
2022-10-30T00:16:46.896Z,96.50
2022-10-30T00:17:46.893Z,97.00
2022-10-30T00:18:46.630Z,97.20
2022-10-30T00:19:46.851Z,97.00
2022-10-30T00:20:46.685Z,97.11
2022-10-30T00:21:46.621Z,97.51
2022-10-30T00:22:46.601Z,98.02
2022-10-30T00:23:46.569Z,97.92
2022-10-30T00:24:46.794Z,98.22
2022-10-30T00:25:46.803Z,98.22
2022-10-30T00:26:46.580Z,97.31
2022-10-30T00:27:46.749Z,97.61
2022-10-30T00:28:46.524Z,97.41
2022-10-30T00:29:46.503Z,97.11
2022-10-30T00:30:46.496Z,97.31
2022-10-30T00:31:46.482Z,97.61
2022-10-30T00:32:46.497Z,97.61
2022-10-30T00:33:46.465Z,97.15
2022-10-30T00:34:46.696Z,96.95
2022-10-30T00:36:46.435Z,97.15
2022-10-30T00:37:46.641Z,97.61
2022-10-30T00:38:46.435Z,97.56
2022-10-30T00:39:46.408Z,97.25
2022-10-30T00:40:46.405Z,96.95
2022-10-30T00:41:46.384Z,97.25
2022-10-30T00:42:46.367Z,96.95
2022-10-30T00:43:46.482Z,97.15
2022-10-30T00:44:46.374Z,97.25
2022-10-30T00:45:46.587Z,97.45
2022-10-30T00:46:46.332Z,96.95
2022-10-30T00:47:46.560Z,97.15
2022-10-30T00:48:46.302Z,97.45
2022-10-30T00:49:46.280Z,97.76
2022-10-30T00:50:46.305Z,97.66
2022-10-30T00:51:46.514Z,97.45
2022-10-30T00:52:46.274Z,97.56
2022-10-30T00:53:46.485Z,97.86
2022-10-30T00:54:46.242Z,98.07
2022-10-30T00:55:46.229Z,97.86
2022-10-30T00:56:46.239Z,97.76
2022-10-30T00:57:46.209Z,97.96
2022-10-30T00:58:46.206Z,98.07
2022-10-30T00:59:46.400Z,98.07
2022-10-30T01:00:46.409Z,97.96
2022-10-30T01:01:46.562Z,98.16
2022-10-30T01:02:46.462Z,98.57
2022-10-30T01:03:46.148Z,98.37
2022-10-30T01:04:46.141Z,98.37
2022-10-30T01:05:46.126Z,98.27
2022-10-30T01:06:46.115Z,97.76
2022-10-30T01:07:46.111Z,97.96
2022-10-30T01:08:46.432Z,98.16
2022-10-30T01:09:46.291Z,98.37
2022-10-30T01:10:46.079Z,98.47
2022-10-30T01:11:46.277Z,98.68
2022-10-30T01:12:46.046Z,98.47
2022-10-30T01:13:46.047Z,97.96
2022-10-30T01:14:46.021Z,98.07
2022-10-30T01:15:46.015Z,97.66
2022-10-30T01:16:46.018Z,97.76
2022-10-30T01:17:45.998Z,98.16
2022-10-30T01:18:46.233Z,98.16
2022-10-30T01:19:46.277Z,97.86
2022-10-30T01:20:45.994Z,98.07
2022-10-30T01:21:45.988Z,97.76
2022-10-30T01:22:45.991Z,98.27
2022-10-30T01:23:45.959Z,98.62
2022-10-30T01:24:46.145Z,98.68
2022-10-30T01:25:45.920Z,98.62
2022-10-30T01:26:46.123Z,98.41
2022-10-30T01:27:45.881Z,98.21
2022-10-30T01:28:45.884Z,98.21
2022-10-30T01:29:45.867Z,98.41
2022-10-30T01:30:46.086Z,98.32
2022-10-30T01:31:45.854Z,98.32
2022-10-30T01:32:46.069Z,98.62
2022-10-30T01:33:45.824Z,98.41
2022-10-30T01:34:46.033Z,98.72
2022-10-30T01:35:45.795Z,98.72
2022-10-30T01:36:45.810Z,98.52
2022-10-30T01:37:45.999Z,98.21
2022-10-30T01:38:45.772Z,98.11
2022-10-30T01:39:45.978Z,98.32
2022-10-30T01:40:45.750Z,98.72
2022-10-30T01:41:45.989Z,98.52
2022-10-30T01:42:45.724Z,98.72
2022-10-30T01:43:45.927Z,98.82
2022-10-30T01:44:45.922Z,99.22
2022-10-30T01:45:45.687Z,99.13
2022-10-30T01:46:45.693Z,99.43
2022-10-30T01:47:45.684Z,98.92
2022-10-30T01:48:45.666Z,98.32
2022-10-30T01:49:45.652Z,98.41
2022-10-30T01:50:45.657Z,98.52
2022-10-30T01:51:45.626Z,98.52
2022-10-30T01:52:45.627Z,98.52
2022-10-30T01:53:45.609Z,98.41
2022-10-30T01:54:45.670Z,98.32
2022-10-30T01:55:45.587Z,98.21
2022-10-30T01:56:45.574Z,98.21
2022-10-30T01:57:45.566Z,97.80
2022-10-30T01:58:45.572Z,98.32
2022-10-30T01:59:45.543Z,98.62
2022-10-30T02:00:45.527Z,98.72
2022-10-30T02:01:45.948Z,98.41
2022-10-30T02:02:45.618Z,98.32
2022-10-30T02:03:45.737Z,98.21
2022-10-30T02:04:45.514Z,98.21
2022-10-30T02:05:45.486Z,98.21
2022-10-30T02:06:45.709Z,98.41
2022-10-30T02:07:45.464Z,98.52
2022-10-30T02:08:45.466Z,98.82
2022-10-30T02:09:45.432Z,98.92
2022-10-30T06:00:59.283Z,98.24
2022-10-30T06:02:00.348Z,98.30
2022-10-30T06:03:01.111Z,98.34
2022-10-30T06:04:00.196Z,98.75
2022-10-30T06:05:00.184Z,99.05
2022-10-30T06:06:00.206Z,98.95
2022-10-30T06:07:00.174Z,98.75
2022-10-30T06:08:00.176Z,98.85
2022-10-30T06:09:00.157Z,98.65
2022-10-30T06:10:00.150Z,98.75
2022-10-30T06:11:00.169Z,98.65
2022-10-30T06:12:00.182Z,98.75
2022-10-30T06:13:00.672Z,98.85
2022-10-30T06:14:00.132Z,98.95
2022-10-30T06:15:00.101Z,99.16
2022-10-30T06:16:00.077Z,99.26
2022-10-30T06:17:06.117Z,98.75
2022-10-30T06:18:00.586Z,98.65
2022-10-30T06:19:00.028Z,98.54
2022-10-30T06:20:00.044Z,98.65
2022-10-30T06:21:00.002Z,98.65
2022-10-30T06:21:59.996Z,98.54
2022-10-30T06:23:00.005Z,98.44
2022-10-30T06:23:59.974Z,98.85
2022-10-30T06:24:59.977Z,98.95
2022-10-30T06:25:59.970Z,98.85
2022-10-30T06:26:59.951Z,98.95
2022-10-30T06:28:00.436Z,98.75
2022-10-30T06:28:59.918Z,99.05
2022-10-30T06:29:59.916Z,98.95
2022-10-30T06:30:59.899Z,99.05
2022-10-30T06:32:02.323Z,99.05
2022-10-30T06:33:00.445Z,99.16
2022-10-30T06:33:59.871Z,99.16
2022-10-30T06:34:59.852Z,99.16
2022-10-30T06:35:59.842Z,98.85
2022-10-30T06:37:00.835Z,98.95
2022-10-30T06:37:59.820Z,98.95
2022-10-30T06:38:59.841Z,99.16
2022-10-30T06:39:59.795Z,99.05
2022-10-30T06:40:59.784Z,99.16
2022-10-30T06:41:59.777Z,99.05
2022-10-30T06:43:00.196Z,99.05
2022-10-30T06:43:59.775Z,99.05
2022-10-30T06:44:59.744Z,99.16
2022-10-30T06:45:59.818Z,99.36
2022-10-30T06:46:59.725Z,99.36
2022-10-30T06:47:59.966Z,99.05
2022-10-30T06:48:59.710Z,98.85
2022-10-30T06:49:59.709Z,98.75
2022-10-30T06:50:59.684Z,99.05
2022-10-30T06:51:59.688Z,99.26
2022-10-30T06:52:59.651Z,99.36
2022-10-30T06:53:59.658Z,99.46
2022-10-30T06:54:59.638Z,99.66
2022-10-30T06:55:59.642Z,99.36
2022-10-30T06:56:59.617Z,99.26
2022-10-30T06:57:59.964Z,99.16
2022-10-30T06:58:59.588Z,99.26
2022-10-30T06:59:59.593Z,99.36
2022-10-30T07:00:59.571Z,99.56
2022-10-30T07:02:01.026Z,99.66
2022-10-30T07:03:00.004Z,99.87
2022-10-30T07:03:59.560Z,99.87
2022-10-30T07:04:59.534Z,99.97
2022-10-30T07:05:59.520Z,99.99
2022-10-30T07:06:59.512Z,99.99
2022-10-30T07:07:59.493Z,99.97
2022-10-30T07:08:59.485Z,99.97
2022-10-30T07:09:59.500Z,99.99
2022-10-30T07:10:59.473Z,99.99
2022-10-30T07:12:04.120Z,99.99
2022-10-30T07:12:59.777Z,99.99
2022-10-30T07:13:59.476Z,99.99
2022-10-30T07:14:59.422Z,99.99
2022-10-30T07:15:59.409Z,99.99
2022-10-30T07:16:59.394Z,99.99
2022-10-30T07:17:59.707Z,99.99
2022-10-30T07:19:02.141Z,99.99
2022-10-30T07:19:59.388Z,99.99
2022-10-30T07:20:59.360Z,99.99
2022-10-30T07:21:59.348Z,99.99
2022-10-30T07:22:59.341Z,99.99
2022-10-30T07:23:59.325Z,99.99
2022-10-30T07:24:59.315Z,99.99
2022-10-30T07:26:03.534Z,99.99
2022-10-30T07:26:59.298Z,99.99
2022-10-30T07:27:59.536Z,99.99
2022-10-30T07:28:59.272Z,99.99
2022-10-30T07:29:59.256Z,99.99
2022-10-30T07:30:59.275Z,99.99
2022-10-30T07:32:02.954Z,99.99
2022-10-30T07:32:59.550Z,99.99
2022-10-30T07:33:59.205Z,99.99
2022-10-30T07:34:59.206Z,99.99
2022-10-30T07:35:59.189Z,99.99
2022-10-30T07:36:59.196Z,99.99
2022-10-30T07:37:59.174Z,99.99
2022-10-30T07:38:59.183Z,99.99
2022-10-30T07:39:59.141Z,99.99
2022-10-30T07:40:59.158Z,99.99
2022-10-30T07:41:59.121Z,99.99
2022-10-30T07:42:59.452Z,99.99
2022-10-30T07:43:59.097Z,99.99
2022-10-30T07:44:59.203Z,99.99
2022-10-30T07:45:59.080Z,99.99
2022-10-30T07:46:59.095Z,99.99
2022-10-30T07:47:59.303Z,99.99
2022-10-30T07:48:59.059Z,99.99
2022-10-30T07:49:59.028Z,99.99
2022-10-30T07:50:59.049Z,99.99
2022-10-30T07:51:59.015Z,99.99
2022-10-30T07:52:59.011Z,99.99
2022-10-30T07:53:58.990Z,99.99
2022-10-30T07:54:58.983Z,99.99
2022-10-30T07:55:58.973Z,99.99
2022-10-30T07:56:59.002Z,99.99
2022-10-30T07:57:59.348Z,99.99
2022-10-30T07:58:58.945Z,99.99
2022-10-30T08:00:01.053Z,99.99
2022-10-30T08:00:59.004Z,99.99
2022-10-30T08:01:59.076Z,99.99
2022-10-30T08:02:59.341Z,99.99
2022-10-30T08:03:58.887Z,99.99
2022-10-30T08:04:58.872Z,99.99
2022-10-30T08:05:58.922Z,99.99
2022-10-30T08:06:58.857Z,99.99
2022-10-30T08:07:59.409Z,99.99
2022-10-30T08:08:58.843Z,99.99
2022-10-30T08:09:58.817Z,99.99
2022-10-30T08:10:58.823Z,99.99
2022-10-30T08:11:58.801Z,99.84
2022-10-30T08:12:58.792Z,99.84
2022-10-30T08:13:58.816Z,99.63
2022-10-30T08:14:58.767Z,99.53
2022-10-30T08:15:58.769Z,99.53
2022-10-30T08:16:58.753Z,99.53
2022-10-30T08:17:59.080Z,99.63
2022-10-30T08:18:58.721Z,99.63
2022-10-30T08:19:58.722Z,99.22
2022-10-30T08:20:58.692Z,99.22
2022-10-30T08:22:00.072Z,99.13
2022-10-30T08:22:59.074Z,99.22
2022-10-30T08:23:58.680Z,99.13
2022-10-30T08:24:58.670Z,99.22
2022-10-30T08:25:58.641Z,99.33
2022-10-30T08:26:58.642Z,99.02
2022-10-30T08:27:58.631Z,99.02
2022-10-30T08:28:58.615Z,99.13
2022-10-30T08:29:58.597Z,99.02
2022-10-30T08:30:58.610Z,99.13
2022-10-30T08:31:58.574Z,99.13
2022-10-30T08:32:58.929Z,99.08
2022-10-30T08:33:58.557Z,98.97
2022-10-30T08:34:58.553Z,98.82
2022-10-30T08:35:58.538Z,98.88
2022-10-30T08:36:58.543Z,98.88
2022-10-30T08:37:58.760Z,98.77
2022-10-30T08:38:58.511Z,98.77
2022-10-30T08:39:58.487Z,98.77
2022-10-30T08:40:58.476Z,98.77
2022-10-30T08:41:58.480Z,98.68
2022-10-30T08:42:58.482Z,98.37
2022-10-30T08:43:58.451Z,98.37
2022-10-30T08:44:58.444Z,98.37
2022-10-30T08:45:58.448Z,98.07
2022-10-30T08:46:58.419Z,98.16
2022-10-30T08:47:58.867Z,98.16
2022-10-30T08:48:58.408Z,97.96
2022-10-30T08:49:58.381Z,97.96
2022-10-30T08:50:58.382Z,97.96
2022-10-30T08:51:58.367Z,97.96
2022-10-30T08:52:58.700Z,98.16
2022-10-30T08:53:58.329Z,97.81
2022-10-30T08:54:58.350Z,97.71
2022-10-30T08:55:58.320Z,97.92
2022-10-30T08:56:59.304Z,97.71
2022-10-30T08:57:58.285Z,97.41
2022-10-30T08:58:58.284Z,97.51
2022-10-30T08:59:58.263Z,97.20
2022-10-30T09:01:01.452Z,97.20
2022-10-30T09:01:58.438Z,97.00
2022-10-30T09:02:58.634Z,97.31
2022-10-30T09:03:58.245Z,97.16
2022-10-30T09:04:58.251Z,96.96
2022-10-30T09:05:58.196Z,96.96
2022-10-30T09:06:58.197Z,96.75
2022-10-30T09:07:58.614Z,97.06
2022-10-30T09:08:58.175Z,96.96
2022-10-30T09:09:58.209Z,97.06
2022-10-30T09:10:58.159Z,97.06
2022-10-30T09:11:58.145Z,96.86
2022-10-30T09:12:58.128Z,96.71
2022-10-30T09:13:58.121Z,97.02
2022-10-30T09:14:58.113Z,97.11
2022-10-30T09:15:58.121Z,96.71
2022-10-30T09:16:58.092Z,96.20
2022-10-30T09:17:58.347Z,96.20
2022-10-30T09:18:58.062Z,96.71
2022-10-30T09:19:58.068Z,96.26
2022-10-30T09:20:58.153Z,95.90
2022-10-30T09:21:58.035Z,97.27
2022-10-30T09:22:58.691Z,95.95
2022-10-30T09:23:58.053Z,95.65
2022-10-30T09:24:58.005Z,95.75
2022-10-30T09:25:57.997Z,96.06
2022-10-30T09:26:57.988Z,95.25
2022-10-30T09:27:57.965Z,95.35
2022-10-30T09:28:57.960Z,95.65
2022-10-30T09:29:57.971Z,95.30
2022-10-30T09:30:57.942Z,95.10
2022-10-30T09:31:57.922Z,94.90
2022-10-30T09:32:58.598Z,94.79
2022-10-30T09:33:57.897Z,94.90
2022-10-30T09:34:57.891Z,94.49
2022-10-30T09:35:57.903Z,94.59
2022-10-30T09:36:57.867Z,94.39
2022-10-30T09:37:58.158Z,94.90
2022-10-30T09:38:57.850Z,94.29
2022-10-30T09:39:57.846Z,94.19
2022-10-30T09:40:57.852Z,94.49
2022-10-30T09:41:57.824Z,95.00
2022-10-30T09:42:57.808Z,94.45
2022-10-30T09:43:57.792Z,93.23
2022-10-30T09:45:23.388Z,93.23
2022-10-30T09:45:57.772Z,93.54
2022-10-30T09:46:57.800Z,93.03
2022-10-30T09:47:58.140Z,93.63
2022-10-30T09:48:57.800Z,93.23
2022-10-30T09:49:57.731Z,93.03
2022-10-30T09:50:57.718Z,92.72
2022-10-30T09:51:57.702Z,92.93
2022-10-30T09:52:58.178Z,92.93
2022-10-30T09:53:57.687Z,92.63
2022-10-30T09:54:57.677Z,92.99
2022-10-30T09:55:57.668Z,92.58
2022-10-30T09:57:01.198Z,92.08
2022-10-30T09:57:57.641Z,91.97
2022-10-30T09:58:57.648Z,91.87
2022-10-30T09:59:57.636Z,92.68
2022-10-30T10:00:59.789Z,92.18
2022-10-30T10:01:57.784Z,92.58
2022-10-30T10:02:58.037Z,91.87
2022-10-30T10:03:57.662Z,92.08
2022-10-30T10:04:57.569Z,92.03
2022-10-30T10:05:57.553Z,92.33
2022-10-30T10:06:57.588Z,92.13
2022-10-30T10:07:57.789Z,91.83
2022-10-30T10:08:57.520Z,91.22
2022-10-30T10:09:57.542Z,91.83
2022-10-30T10:10:57.519Z,91.02
2022-10-30T10:11:57.490Z,91.42
2022-10-30T10:13:01.139Z,90.82
2022-10-30T10:13:57.466Z,90.82
2022-10-30T10:14:57.451Z,90.92
2022-10-30T10:15:57.445Z,91.42
2022-10-30T10:16:57.435Z,91.28
2022-10-30T10:17:57.441Z,90.58
2022-10-30T10:18:57.413Z,90.67
2022-10-30T10:19:57.429Z,90.17
2022-10-30T10:20:57.391Z,90.17
2022-10-30T10:21:57.377Z,89.87
2022-10-30T10:22:57.807Z,90.67
2022-10-30T10:23:57.361Z,89.46
2022-10-30T10:24:57.370Z,90.33
2022-10-30T10:25:57.333Z,90.53
2022-10-30T10:26:57.326Z,90.23
2022-10-30T10:27:57.316Z,89.83
2022-10-30T10:28:57.306Z,90.12
2022-10-30T10:29:57.288Z,89.52
2022-10-30T10:30:57.299Z,89.12
2022-10-30T10:31:57.272Z,89.22
2022-10-30T10:32:57.665Z,89.52
2022-10-30T10:33:57.956Z,89.62
2022-10-30T10:34:57.238Z,89.12
2022-10-30T10:35:57.232Z,88.71
2022-10-30T10:36:57.244Z,88.21
2022-10-30T10:37:57.586Z,88.41
2022-10-30T10:38:57.190Z,89.48
2022-10-30T10:39:57.187Z,88.77
2022-10-30T10:40:57.170Z,88.26
2022-10-30T10:41:57.171Z,88.26
2022-10-30T10:42:57.180Z,88.67
2022-10-30T10:43:57.137Z,89.17
2022-10-30T10:44:57.124Z,87.66
2022-10-30T10:45:57.119Z,87.05
2022-10-30T10:46:57.106Z,87.36
2022-10-30T10:47:57.640Z,87.56
2022-10-30T10:48:57.096Z,87.15
2022-10-30T10:49:57.063Z,86.35
2022-10-30T10:50:57.064Z,86.81
2022-10-30T10:51:57.052Z,86.51
2022-10-30T10:52:57.419Z,86.10
2022-10-30T10:53:57.026Z,85.90
2022-10-30T10:54:57.050Z,85.40
2022-10-30T10:55:57.009Z,85.50
2022-10-30T10:56:56.999Z,85.19
2022-10-30T10:57:56.986Z,85.05
2022-10-30T10:58:56.989Z,85.16
2022-10-30T10:59:56.967Z,84.45
2022-10-30T11:00:57.080Z,85.56
2022-10-30T11:01:57.082Z,85.16
2022-10-30T11:02:57.335Z,85.05
2022-10-30T11:03:56.915Z,84.95
2022-10-30T11:04:56.927Z,84.15
2022-10-30T11:05:56.904Z,84.95
2022-10-30T11:06:56.887Z,84.81
2022-10-30T11:07:57.318Z,83.70
2022-10-30T11:08:56.869Z,84.51
2022-10-30T11:10:03.410Z,84.81
2022-10-30T11:10:56.877Z,84.11
2022-10-30T11:11:56.834Z,83.80
2022-10-30T11:12:57.264Z,85.11
2022-10-30T11:13:56.805Z,83.20
2022-10-30T11:14:56.807Z,83.80
2022-10-30T11:15:56.814Z,83.06
2022-10-30T11:16:56.807Z,83.87
2022-10-30T11:17:56.842Z,82.45
2022-10-30T11:18:56.758Z,82.96
2022-10-30T11:19:56.743Z,81.85
2022-10-30T11:20:56.735Z,82.56
2022-10-30T11:21:56.756Z,80.94
2022-10-30T11:22:57.169Z,81.75
2022-10-30T11:23:56.716Z,81.41
2022-10-30T11:24:56.690Z,82.21
2022-10-30T11:25:56.677Z,80.50
2022-10-30T11:26:56.673Z,81.10
2022-10-30T11:27:56.670Z,79.96
2022-10-30T11:28:56.653Z,80.66
2022-10-30T11:29:56.630Z,79.16
2022-10-30T11:30:56.623Z,78.75
2022-10-30T11:31:56.626Z,80.06
2022-10-30T11:32:57.296Z,80.46
2022-10-30T11:33:56.613Z,78.55
2022-10-30T11:34:56.592Z,79.25
2022-10-30T11:35:56.573Z,79.72
2022-10-30T11:36:56.560Z,79.02
2022-10-30T11:37:56.545Z,79.42
2022-10-30T11:38:58.985Z,79.72
2022-10-30T11:39:56.559Z,78.31
2022-10-30T11:40:56.518Z,79.11
2022-10-30T11:41:56.513Z,78.51
2022-10-30T11:42:56.921Z,79.02
2022-10-30T11:43:56.491Z,78.11
2022-10-30T11:44:56.489Z,77.11
2022-10-30T11:45:56.468Z,78.81
2022-10-30T11:46:56.545Z,77.50
2022-10-30T11:47:58.291Z,77.70
2022-10-30T11:48:56.429Z,76.97
2022-10-30T11:49:56.416Z,77.97
2022-10-30T11:50:56.514Z,77.37
2022-10-30T11:51:56.416Z,76.87
2022-10-30T11:52:56.381Z,78.17
2022-10-30T11:53:56.380Z,75.35
2022-10-30T11:54:56.381Z,74.95
2022-10-30T11:55:56.353Z,76.26
2022-10-30T11:56:56.343Z,75.35
2022-10-30T11:57:56.720Z,75.82
2022-10-30T11:58:56.317Z,76.83
2022-10-30T12:00:00.607Z,76.23
2022-10-30T12:00:56.325Z,75.82
2022-10-30T12:01:56.406Z,74.72
2022-10-30T12:02:56.673Z,74.72
2022-10-30T12:03:56.304Z,75.32
2022-10-30T12:04:56.248Z,74.92
2022-10-30T12:05:56.246Z,72.87
2022-10-30T12:06:56.235Z,72.47
2022-10-30T12:07:56.229Z,72.97
2022-10-30T12:08:56.239Z,72.97
2022-10-30T12:09:56.203Z,72.74
2022-10-30T12:10:56.193Z,72.74
2022-10-30T12:11:56.193Z,72.74
2022-10-30T12:12:56.619Z,72.53
2022-10-30T12:13:56.163Z,71.13
2022-10-30T12:14:56.202Z,72.10
2022-10-30T12:15:56.151Z,70.29
2022-10-30T12:16:56.123Z,70.50
2022-10-30T12:18:02.144Z,69.85
2022-10-30T12:18:56.108Z,68.15
2022-10-30T12:19:56.090Z,68.76
2022-10-30T12:20:56.103Z,68.72
2022-10-30T12:21:56.102Z,69.32
2022-10-30T12:22:56.423Z,68.82
2022-10-30T12:23:56.049Z,69.62
2022-10-30T12:24:56.052Z,68.72
2022-10-30T12:25:56.050Z,68.52
2022-10-30T12:26:56.786Z,67.69
2022-10-30T12:27:56.057Z,67.58
2022-10-30T12:28:56.065Z,67.49
2022-10-30T12:30:07.929Z,67.38
2022-10-30T12:30:56.025Z,66.68
2022-10-30T12:31:55.996Z,65.88
2022-10-30T12:32:56.137Z,66.55
2022-10-30T12:33:56.896Z,66.35
2022-10-30T12:34:55.937Z,64.65
2022-10-30T12:35:55.949Z,67.05
2022-10-30T12:36:55.931Z,66.05
2022-10-30T12:37:56.141Z,66.85
2022-10-30T12:38:55.905Z,66.35
2022-10-30T12:39:55.905Z,67.35
2022-10-30T12:40:55.884Z,64.54
2022-10-30T12:41:55.876Z,66.12
2022-10-30T12:42:55.882Z,65.72
2022-10-30T12:43:55.844Z,65.72
2022-10-30T12:44:55.830Z,64.22
2022-10-30T12:45:55.812Z,66.32
2022-10-30T12:46:55.810Z,65.31
2022-10-30T12:47:55.832Z,66.12
2022-10-30T12:48:55.768Z,65.62
2022-10-30T12:49:55.798Z,66.42
2022-10-30T12:50:55.768Z,64.78
2022-10-30T12:51:55.755Z,65.59
2022-10-30T12:52:56.236Z,62.98
2022-10-30T12:53:55.731Z,63.68
2022-10-30T12:54:55.757Z,64.28
2022-10-30T12:55:55.699Z,63.65
2022-10-30T12:56:55.716Z,64.55
2022-10-30T12:57:55.709Z,64.36
2022-10-30T12:58:55.697Z,64.45
2022-10-30T12:59:55.664Z,63.65
2022-10-30T13:00:55.782Z,63.56
2022-10-30T13:01:55.744Z,61.95
2022-10-30T13:02:55.870Z,62.22
2022-10-30T13:03:55.628Z,62.62
2022-10-30T13:04:55.636Z,62.92
2022-10-30T13:05:56.320Z,63.72
2022-10-30T13:06:55.598Z,63.12
2022-10-30T13:07:55.867Z,64.32
2022-10-30T13:08:55.560Z,64.12
2022-10-30T13:09:55.549Z,64.49
2022-10-30T13:10:55.556Z,62.79
2022-10-30T13:11:55.570Z,63.29
2022-10-30T13:12:55.511Z,62.29
2022-10-30T13:13:55.520Z,64.39
2022-10-30T13:14:55.493Z,61.59
2022-10-30T13:15:55.493Z,62.39
2022-10-30T13:16:55.505Z,62.29
2022-10-30T13:17:55.582Z,63.69
2022-10-30T13:18:55.447Z,63.89
2022-10-30T13:19:55.483Z,61.19
2022-10-30T13:20:55.434Z,60.27
2022-10-30T13:21:55.427Z,59.97
2022-10-30T13:22:55.419Z,60.46
2022-10-30T13:23:55.441Z,61.16
2022-10-30T13:24:57.921Z,62.66
2022-10-30T13:25:55.405Z,61.57
2022-10-30T13:26:55.401Z,59.56
2022-10-30T13:27:55.344Z,60.36
2022-10-30T13:28:55.369Z,60.27
2022-10-30T13:29:55.340Z,59.74
2022-10-30T13:30:55.345Z,60.03
2022-10-30T13:31:55.331Z,59.53
2022-10-30T13:32:55.389Z,60.33
2022-10-30T13:33:55.344Z,60.63
2022-10-30T13:34:55.301Z,60.53
2022-10-30T13:35:55.276Z,60.53
2022-10-30T13:36:55.257Z,61.43
2022-10-30T13:37:55.318Z,61.04
2022-10-30T13:38:55.241Z,62.53
2022-10-30T13:39:55.241Z,60.71
2022-10-30T13:40:55.281Z,60.61
2022-10-30T13:41:55.205Z,60.61
2022-10-30T13:42:55.189Z,63.00
2022-10-30T13:43:55.189Z,61.30
2022-10-30T13:44:55.168Z,63.20
2022-10-30T13:45:55.190Z,60.91
2022-10-30T13:46:55.174Z,61.41
2022-10-30T13:47:55.173Z,60.61
2022-10-30T13:48:55.124Z,62.20
2022-10-30T13:49:55.125Z,63.40
2022-10-30T13:50:55.093Z,61.41
2022-10-30T13:51:55.129Z,61.41
2022-10-30T13:52:55.103Z,60.21
2022-10-30T13:53:55.099Z,62.40
2022-10-30T13:54:55.057Z,60.00
2022-10-30T13:55:55.079Z,60.21
2022-10-30T13:56:55.032Z,60.91
2022-10-30T13:57:55.039Z,59.41
2022-10-30T13:58:55.014Z,59.70
2022-10-30T13:59:55.008Z,60.21
2022-10-30T14:00:54.994Z,61.41
2022-10-30T14:01:57.559Z,61.00
2022-10-30T14:02:55.051Z,59.91
2022-10-30T14:03:54.976Z,58.91
2022-10-30T14:04:54.956Z,58.51
2022-10-30T14:05:54.943Z,59.11
2022-10-30T14:06:54.945Z,60.00
2022-10-30T14:07:54.957Z,58.71
2022-10-30T14:08:54.905Z,59.61
2022-10-30T14:09:54.897Z,60.91
2022-10-30T14:10:59.348Z,64.80
2022-10-30T14:11:54.889Z,61.00
2022-10-30T14:12:54.867Z,60.11
2022-10-30T14:13:54.885Z,61.21
2022-10-30T14:14:54.857Z,59.51
2022-10-30T14:15:54.833Z,60.31
2022-10-30T14:16:54.815Z,60.41
2022-10-30T14:17:54.815Z,60.14
2022-10-30T14:18:54.821Z,59.53
2022-10-30T14:19:54.793Z,60.44
2022-10-30T14:20:54.792Z,62.04
2022-10-30T14:21:54.766Z,61.04
2022-10-30T14:22:54.772Z,60.83
2022-10-30T14:23:54.755Z,61.63
2022-10-30T14:24:54.756Z,60.63
2022-10-30T14:25:54.734Z,61.13
2022-10-30T14:26:54.735Z,61.96
2022-10-30T14:27:54.706Z,61.07
2022-10-30T14:28:54.711Z,64.06
2022-10-30T14:29:54.687Z,61.07
2022-10-30T14:30:54.709Z,62.26
2022-10-30T14:31:54.663Z,61.76
2022-10-30T14:32:54.644Z,62.66
2022-10-30T14:33:54.634Z,61.16
2022-10-30T14:34:54.625Z,63.66
2022-10-30T14:35:54.976Z,63.56
2022-10-30T14:36:54.632Z,63.56
2022-10-30T14:37:54.600Z,64.46
2022-10-30T14:38:54.590Z,64.49
2022-10-30T14:39:54.573Z,63.29
2022-10-30T14:40:54.561Z,65.59
2022-10-30T14:41:54.559Z,64.69
2022-10-30T14:42:54.570Z,65.99
2022-10-30T14:43:54.538Z,66.69
2022-10-30T14:44:54.519Z,66.09
2022-10-30T14:45:54.509Z,65.69
2022-10-30T14:46:59.079Z,66.49
2022-10-30T14:47:54.495Z,67.09
2022-10-30T14:48:54.507Z,65.19
2022-10-30T14:49:54.471Z,66.49
2022-10-30T14:50:54.451Z,65.62
2022-10-30T14:51:54.466Z,69.02
2022-10-30T14:52:54.422Z,65.22
2022-10-30T14:53:54.433Z,64.62
2022-10-30T14:54:54.415Z,64.32
2022-10-30T14:55:54.408Z,67.52
2022-10-30T14:56:54.419Z,67.43
2022-10-30T14:57:54.394Z,65.92
2022-10-30T14:58:54.379Z,66.02
2022-10-30T14:59:54.352Z,69.23
2022-10-30T15:01:47.339Z,66.93
2022-10-30T15:02:48.263Z,69.32
2022-10-30T15:03:48.217Z,71.76
2022-10-30T15:04:48.183Z,69.06
2022-10-30T15:05:48.223Z,68.26
2022-10-30T15:06:48.249Z,68.05
2022-10-30T15:07:48.163Z,67.86
2022-10-30T15:08:48.147Z,70.36
2022-10-30T15:09:48.152Z,69.36
2022-10-30T15:10:48.121Z,70.26
2022-10-30T15:11:48.130Z,73.06
2022-10-30T15:12:48.114Z,73.66
2022-10-30T15:13:48.109Z,75.20
2022-10-30T15:14:54.136Z,74.30
2022-10-30T15:15:54.077Z,73.30
2022-10-30T15:16:48.071Z,73.80
2022-10-30T15:17:48.039Z,73.30
2022-10-30T15:18:48.048Z,73.19
2022-10-30T15:19:48.017Z,72.00
2022-10-30T15:20:48.004Z,74.70
2022-10-30T15:21:48.017Z,74.23
2022-10-30T15:22:48.037Z,75.43
2022-10-30T15:23:47.983Z,75.34
2022-10-30T15:24:47.969Z,75.23
2022-10-30T15:25:47.982Z,75.04
2022-10-30T15:26:47.945Z,74.63
2022-10-30T15:27:47.959Z,76.14
2022-10-30T15:28:47.948Z,76.84
2022-10-30T15:29:47.911Z,76.84
2022-10-30T15:30:47.908Z,77.78
2022-10-30T15:31:47.897Z,77.37
2022-10-30T15:32:47.884Z,77.37
2022-10-30T15:33:47.893Z,77.98
2022-10-30T15:34:47.862Z,77.58
2022-10-30T15:35:47.857Z,76.37
2022-10-30T15:36:47.844Z,78.38
2022-10-30T15:37:47.852Z,78.98
2022-10-30T15:38:47.834Z,78.61
2022-10-30T15:39:47.803Z,77.81
2022-10-30T15:40:47.811Z,77.91
2022-10-30T15:41:47.793Z,79.02
2022-10-30T15:42:47.783Z,78.92
2022-10-30T15:43:47.762Z,78.52
2022-10-30T15:44:47.747Z,79.42
2022-10-30T15:45:47.745Z,79.05
2022-10-30T15:46:47.746Z,77.45
2022-10-30T15:47:47.731Z,77.05
2022-10-30T15:48:47.714Z,79.05
2022-10-30T15:49:47.702Z,79.16
2022-10-30T15:50:47.687Z,79.75
2022-10-30T15:51:47.684Z,80.26
2022-10-30T15:52:47.676Z,79.90
2022-10-30T15:53:47.656Z,80.70
2022-10-30T15:54:47.632Z,79.39
2022-10-30T15:55:47.633Z,79.09
2022-10-30T15:57:17.951Z,80.10
2022-10-30T15:58:02.758Z,81.10
2022-10-30T15:58:47.602Z,80.60
2022-10-30T15:59:47.589Z,80.50
2022-10-30T16:00:47.578Z,79.60
2022-10-30T16:01:47.751Z,79.83
2022-10-30T16:02:47.759Z,78.93
2022-10-30T16:03:48.458Z,79.73
2022-10-30T16:04:47.531Z,78.12
2022-10-30T16:05:47.531Z,80.04
2022-10-30T16:06:47.518Z,80.43
2022-10-30T16:07:47.500Z,81.24
2022-10-30T16:08:47.505Z,80.33
2022-10-30T16:09:47.481Z,81.48
2022-10-30T16:10:47.471Z,82.08
2022-10-30T16:11:47.461Z,80.68
2022-10-30T16:12:47.454Z,81.48
2022-10-30T16:13:47.437Z,80.47
2022-10-30T16:14:47.443Z,80.77
2022-10-30T16:15:47.562Z,82.28
2022-10-30T16:16:47.396Z,80.37
2022-10-30T16:17:47.390Z,81.58
2022-10-30T16:18:47.387Z,82.28
2022-10-30T16:19:47.374Z,82.62
2022-10-30T16:20:47.394Z,83.23
2022-10-30T16:21:47.341Z,82.32
2022-10-30T16:22:47.331Z,82.92
2022-10-30T16:23:47.324Z,83.33
2022-10-30T16:24:47.326Z,82.72
2022-10-30T16:25:47.674Z,82.52
2022-10-30T16:26:47.292Z,83.33
2022-10-30T16:27:47.291Z,82.56
2022-10-30T16:28:47.276Z,83.67
2022-10-30T16:29:47.308Z,82.76
2022-10-30T16:30:47.255Z,82.66
2022-10-30T16:31:47.291Z,82.86
2022-10-30T16:32:47.285Z,82.26
2022-10-30T16:33:47.278Z,83.57
2022-10-30T16:34:47.260Z,83.67
2022-10-30T16:35:53.067Z,84.17
2022-10-30T16:36:47.244Z,82.80
2022-10-30T16:37:47.229Z,81.29
2022-10-30T16:38:47.214Z,84.11
2022-10-30T16:39:47.210Z,81.99
2022-10-30T16:40:47.202Z,83.31
2022-10-30T16:41:47.201Z,84.61
2022-10-30T16:42:47.175Z,84.51
2022-10-30T16:43:47.160Z,81.19
2022-10-30T16:44:47.153Z,80.22